Time;durP1;ratioP1;P1;durP2;ratioP2;P2;SDS_P1;SDS_P2;PMS_P1;PMS_P2;Temp;Humidity;BMP_temperature;BMP_pressure;BME280_temperature;BME280_humidity;BME280_pressure;Samples;Min_cycle;Max_cycle;Signal;HPM_P1;HPM_P2
2024/04/11 00:02:56;;;;;;;4.43;4.03;;;;;;;10.34;100.00;102778.66;6723995;26;20263;-72
2024/04/11 00:06:18;;;;;;;5.67;4.07;;;;;;;10.38;100.00;102769.44;6709627;26;20255;-73
2024/04/11 00:09:40;;;;;;;5.60;3.90;;;;;;;10.30;100.00;102769.91;6709031;26;20579;-73
2024/04/11 00:13:00;;;;;;;5.43;4.37;;;;;;;10.33;100.00;102766.13;6726092;26;20255;-72
2024/04/11 00:16:25;;;;;;;7.17;5.00;;;;;;;10.21;100.00;102762.31;6703080;26;20267;-72
2024/04/11 00:19:47;;;;;;;5.13;4.73;;;;;;;10.18;100.00;102772.41;6724564;26;20271;-72
2024/04/11 00:23:08;;;;;;;10.23;4.87;;;;;;;10.34;100.00;102773.28;6726512;26;20295;-73
2024/04/11 00:26:30;;;;;;;4.73;4.33;;;;;;;10.21;100.00;102791.97;6722542;26;20284;-73
2024/04/11 00:29:52;;;;;;;4.90;4.43;;;;;;;10.18;100.00;102777.81;6729874;26;20575;-73
2024/04/11 00:33:15;;;;;;;8.20;5.47;;;;;;;10.26;100.00;102759.38;6744620;26;20581;-73
2024/04/11 00:36:40;;;;;;;6.77;5.77;;;;;;;10.16;100.00;102759.00;6729493;26;20279;-72
2024/04/11 00:40:02;;;;;;;5.30;4.27;;;;;;;10.13;100.00;102740.34;6736411;26;20400;-71
2024/04/11 00:43:23;;;;;;;5.80;4.47;;;;;;;10.10;100.00;102739.59;6731252;26;20275;-72
2024/04/11 00:46:46;;;;;;;7.37;5.20;;;;;;;10.14;100.00;102731.28;6718877;26;20620;-73
2024/04/11 00:50:12;;;;;;;5.53;4.93;;;;;;;10.17;100.00;102730.25;6733316;26;20256;-73
2024/04/11 00:53:32;;;;;;;6.23;4.87;;;;;;;10.11;100.00;102752.16;6727286;26;20256;-73
2024/04/11 00:56:58;;;;;;;5.90;5.00;;;;;;;10.04;100.00;102758.78;6733881;26;20275;-73
2024/04/11 01:00:26;;;;;;;9.70;4.87;;;;;;;10.05;100.00;102757.84;6730155;26;20256;-72
2024/04/11 01:03:48;;;;;;;6.30;5.73;;;;;;;10.12;100.00;102757.44;6695571;26;20594;-73
2024/04/11 01:07:12;;;;;;;5.87;4.70;;;;;;;10.23;100.00;102754.13;6727584;26;20259;-74
2024/04/11 01:10:35;;;;;;;5.60;4.77;;;;;;;10.13;100.00;102761.03;6724761;26;20253;-73
2024/04/11 01:13:55;;;;;;;9.57;5.43;;;;;;;10.10;100.00;102762.06;6731499;26;20271;-73
2024/04/11 01:17:21;;;;;;;7.07;4.87;;;;;;;10.40;100.00;102756.75;6686203;26;20350;-74
2024/04/11 01:20:43;;;;;;;9.00;5.10;;;;;;;10.27;100.00;102761.09;6725297;26;20249;-72
2024/04/11 01:24:09;;;;;;;6.60;4.83;;;;;;;10.35;100.00;102745.34;6722133;26;20264;-73
2024/04/11 01:27:29;;;;;;;6.73;4.87;;;;;;;10.28;100.00;102736.72;6742611;26;20259;-73
2024/04/11 01:30:52;;;;;;;11.07;5.80;;;;;;;10.28;100.00;102723.25;6754557;26;20280;-73
2024/04/11 01:34:12;;;;;;;5.73;5.23;;;;;;;10.43;100.00;102727.75;6744390;26;20249;-73
2024/04/11 01:37:35;;;;;;;5.37;4.93;;;;;;;10.42;100.00;102723.34;6737138;26;20271;-73
2024/04/11 01:41:00;;;;;;;9.83;5.50;;;;;;;10.51;100.00;102729.16;6737127;26;20279;-74
2024/04/11 01:44:20;;;;;;;5.40;4.87;;;;;;;10.41;100.00;102728.81;6702599;26;20278;-73
2024/04/11 01:47:43;;;;;;;7.70;6.27;;;;;;;10.36;100.00;102730.91;6690223;26;20701;-73
2024/04/11 01:51:09;;;;;;;5.50;5.07;;;;;;;10.47;100.00;102736.56;6725332;26;20322;-73
2024/04/11 01:54:32;;;;;;;6.20;5.10;;;;;;;10.38;100.00;102729.00;6727569;26;20324;-74
2024/04/11 01:57:54;;;;;;;5.97;5.00;;;;;;;10.68;100.00;102737.13;6725411;26;20264;-73
2024/04/11 02:01:19;;;;;;;7.30;5.00;;;;;;;10.65;100.00;102740.00;6727419;26;20308;-73
2024/04/11 02:04:42;;;;;;;8.17;5.17;;;;;;;10.69;100.00;102730.75;6701232;26;20597;-73
2024/04/11 02:08:02;;;;;;;6.97;5.20;;;;;;;10.70;100.00;102735.19;6723578;26;20597;-73
2024/04/11 02:11:26;;;;;;;5.13;4.63;;;;;;;10.89;100.00;102717.78;6715632;26;20263;-73
2024/04/11 02:14:52;;;;;;;8.17;4.70;;;;;;;10.75;100.00;102712.38;6694684;26;20260;-73
2024/04/11 02:18:12;;;;;;;5.20;4.20;;;;;;;10.81;100.00;102716.53;6732704;26;20299;-73
2024/04/11 02:21:34;;;;;;;6.43;4.60;;;;;;;10.80;100.00;102710.28;6729965;26;20263;-73
2024/04/11 02:24:54;;;;;;;6.47;4.33;;;;;;;10.84;100.00;102711.84;6721194;26;20792;-74
2024/04/11 02:28:16;;;;;;;5.17;3.90;;;;;;;10.85;100.00;102701.88;6732079;26;21213;-74
2024/04/11 02:31:39;;;;;;;4.50;4.10;;;;;;;10.90;100.00;102691.69;6728959;26;20704;-74
2024/04/11 02:35:05;;;;;;;5.53;3.97;;;;;;;10.98;100.00;102697.47;6701559;26;20264;-74
2024/04/11 02:38:25;;;;;;;5.00;3.37;;;;;;;11.02;100.00;102699.91;6736945;26;20292;-74
2024/04/11 02:41:48;;;;;;;4.23;3.53;;;;;;;11.06;100.00;102690.66;6722325;26;20723;-74
2024/04/11 02:45:07;;;;;;;4.20;3.10;;;;;;;11.13;100.00;102693.84;6711953;26;20249;-74
2024/04/11 02:48:33;;;;;;;16.97;4.17;;;;;;;11.18;100.00;102697.13;6690314;26;20273;-73
2024/04/11 02:51:53;;;;;;;5.97;3.40;;;;;;;11.22;100.00;102706.78;6681048;26;20289;-73
2024/04/11 02:55:15;;;;;;;5.20;3.60;;;;;;;11.33;100.00;102688.06;6671426;26;20453;-75
2024/04/11 02:58:38;;;;;;;5.60;3.03;;;;;;;11.37;100.00;102688.75;6694244;26;20670;-74
2024/04/11 03:02:00;;;;;;;4.37;2.20;;;;;;;11.47;100.00;102684.50;6682362;26;20260;-74
2024/04/11 03:05:25;;;;;;;3.27;2.67;;;;;;;11.47;100.00;102679.97;6682477;26;20258;-74
2024/04/11 03:08:51;;;;;;;6.80;2.83;;;;;;;11.49;100.00;102680.75;6731631;26;20641;-74
2024/04/11 03:12:14;;;;;;;4.43;2.70;;;;;;;11.50;100.00;102671.66;6730227;26;20264;-74
2024/04/11 03:15:36;;;;;;;5.33;2.60;;;;;;;11.58;100.00;102665.75;6719358;26;21150;-74
2024/04/11 03:19:00;;;;;;;3.23;2.57;;;;;;;11.61;100.00;102655.63;6721189;26;20269;-74
2024/04/11 03:22:23;;;;;;;5.07;2.87;;;;;;;11.57;100.00;102654.09;6734524;26;20731;-74
2024/04/11 03:25:45;;;;;;;7.73;2.97;;;;;;;11.51;100.00;102642.81;6738217;26;20270;-74
2024/04/11 03:29:05;;;;;;;5.20;3.17;;;;;;;11.55;100.00;102639.81;6706808;26;20254;-74
2024/04/11 03:32:28;;;;;;;4.30;2.50;;;;;;;11.48;100.00;102630.38;6697915;26;20303;-74
2024/04/11 03:35:53;;;;;;;3.23;2.83;;;;;;;11.55;100.00;102644.34;6733469;26;20259;-74
2024/04/11 03:39:21;;;;;;;4.23;2.50;;;;;;;11.53;100.00;102632.78;6707505;26;20261;-74
2024/04/11 03:42:44;;;;;;;3.23;2.67;;;;;;;11.52;100.00;102653.53;6695753;26;21084;-74
2024/04/11 03:46:08;;;;;;;6.90;3.13;;;;;;;11.47;100.00;102635.88;6729320;26;20264;-74
2024/04/11 03:49:31;;;;;;;7.20;3.33;;;;;;;11.56;100.00;102624.47;6743409;26;20315;-74
2024/04/11 03:52:54;;;;;;;4.23;2.47;;;;;;;11.60;100.00;102623.34;6739525;26;20271;-74
2024/04/11 03:56:22;;;;;;;3.77;2.23;;;;;;;11.61;100.00;102622.34;6727729;26;20318;-74
2024/04/11 03:59:45;;;;;;;3.13;2.20;;;;;;;11.62;100.00;102619.53;6697841;26;20322;-73
2024/04/11 04:03:05;;;;;;;8.77;3.10;;;;;;;11.63;100.00;102607.78;6728108;26;20252;-74
2024/04/11 04:06:27;;;;;;;5.03;2.47;;;;;;;11.61;100.00;102611.53;6729191;26;20299;-74
2024/04/11 04:09:52;;;;;;;3.30;2.30;;;;;;;11.64;100.00;102605.94;6718571;26;20511;-73
2024/04/11 04:13:15;;;;;;;3.10;2.43;;;;;;;11.71;100.00;102626.22;6717417;26;20268;-74
2024/04/11 04:16:38;;;;;;;11.33;2.87;;;;;;;11.70;100.00;102611.81;6716605;26;20498;-73
2024/04/11 04:20:00;;;;;;;6.87;2.10;;;;;;;11.70;100.00;102608.28;6682586;26;20277;-74
2024/04/11 04:23:21;;;;;;;4.20;2.37;;;;;;;11.72;100.00;102631.50;6684477;26;20745;-73
2024/04/11 04:26:44;;;;;;;9.50;2.87;;;;;;;11.88;100.00;102604.34;6681700;26;20269;-73
2024/04/11 04:30:09;;;;;;;4.20;2.37;;;;;;;12.01;100.00;102606.13;6687482;26;20615;-74
2024/04/11 04:33:32;;;;;;;2.00;1.80;;;;;;;12.07;100.00;102618.38;6722467;26;20637;-74
2024/04/11 04:36:55;;;;;;;6.00;2.30;;;;;;;12.15;100.00;102618.72;6725170;26;20326;-74
2024/04/11 04:40:16;;;;;;;5.63;2.90;;;;;;;12.14;100.00;102616.97;6725639;26;20612;-72
2024/04/11 04:43:39;;;;;;;2.27;1.77;;;;;;;12.13;100.00;102607.13;6685253;26;20265;-72
2024/04/11 04:47:15;;;;;;;3.33;1.60;;;;;;;12.16;100.00;102593.41;6677955;26;20812;-73
2024/04/11 04:50:35;;;;;;;3.57;2.17;;;;;;;12.15;100.00;102601.63;6681115;26;20335;-72
2024/04/11 04:53:59;;;;;;;3.53;1.60;;;;;;;12.17;100.00;102603.25;6691265;26;20258;-71
2024/04/11 04:57:21;;;;;;;6.03;2.67;;;;;;;12.20;100.00;102610.31;6713150;26;20280;-73
2024/04/11 05:00:44;;;;;;;3.67;1.97;;;;;;;12.15;100.00;102607.03;6717421;26;20271;-71
2024/04/11 05:04:10;;;;;;;8.70;2.40;;;;;;;12.13;100.00;102595.44;6716812;26;20269;-73
2024/04/11 05:07:30;;;;;;;4.17;2.43;;;;;;;12.14;100.00;102616.97;6726460;26;20292;-71
2024/04/11 05:10:59;;;;;;;2.90;2.10;;;;;;;12.19;100.00;102595.91;6734223;26;22908;-72
2024/04/11 05:14:23;;;;;;;6.90;1.73;;;;;;;12.14;100.00;102591.78;6683368;26;20304;-72
2024/04/11 05:17:43;;;;;;;3.93;2.30;;;;;;;12.12;100.00;102605.38;6681478;26;20272;-72
2024/04/11 05:21:09;;;;;;;4.10;2.03;;;;;;;12.17;100.00;102587.03;6735899;26;20366;-71
2024/04/11 05:24:29;;;;;;;3.83;1.93;;;;;;;12.09;100.00;102591.22;6754948;26;20263;-73
2024/04/11 05:27:53;;;;;;;4.83;2.33;;;;;;;12.10;100.00;102587.56;6724631;26;20267;-72
2024/04/11 05:31:16;;;;;;;3.27;2.00;;;;;;;12.09;100.00;102602.03;6738854;26;20259;-72
2024/04/11 05:34:39;;;;;;;2.23;1.60;;;;;;;12.11;100.00;102583.88;6744520;26;20260;-74
2024/04/11 05:38:01;;;;;;;5.20;2.20;;;;;;;12.11;100.00;102592.00;6742742;26;20259;-71
2024/04/11 05:41:24;;;;;;;5.23;1.97;;;;;;;12.15;100.00;102586.28;6697923;26;20264;-73
2024/04/11 05:44:47;;;;;;;3.13;2.20;;;;;;;12.08;100.00;102592.22;6689243;26;20264;-72
2024/04/11 05:48:07;;;;;;;3.67;2.47;;;;;;;12.14;100.00;102589.94;6725251;26;20257;-72
2024/04/11 05:51:29;;;;;;;3.80;2.60;;;;;;;12.11;100.00;102592.88;6688566;26;20272;-72
2024/04/11 05:54:51;;;;;;;4.23;2.47;;;;;;;12.09;100.00;102596.63;6713616;26;20263;-72
2024/04/11 05:58:14;;;;;;;2.50;2.27;;;;;;;12.11;100.00;102598.28;6721437;26;20253;-72
2024/04/11 06:01:36;;;;;;;6.47;2.87;;;;;;;12.03;100.00;102616.84;6725147;26;20260;-72
2024/04/11 06:04:59;;;;;;;2.87;1.80;;;;;;;12.04;100.00;102610.47;6731007;26;20319;-72
2024/04/11 06:08:22;;;;;;;7.03;2.90;;;;;;;12.00;100.00;102614.34;6726329;26;20265;-72
2024/04/11 06:11:47;;;;;;;3.53;1.90;;;;;;;11.96;100.00;102615.50;6717686;26;20268;-73
2024/04/11 06:15:07;;;;;;;4.67;2.23;;;;;;;12.01;100.00;102599.88;6734175;26;20389;-71
2024/04/11 06:18:34;;;;;;;3.43;2.30;;;;;;;12.05;100.00;102614.91;6724212;26;20272;-72
2024/04/11 06:21:54;;;;;;;3.43;2.90;;;;;;;12.12;100.00;102624.31;6740268;26;20275;-73
2024/04/11 06:25:17;;;;;;;4.17;2.10;;;;;;;12.14;100.00;102608.84;6733493;26;20811;-74
2024/04/11 06:28:44;;;;;;;7.83;2.70;;;;;;;12.18;100.00;102617.66;6724265;26;21481;-73
2024/04/11 06:32:06;;;;;;;2.50;2.30;;;;;;;12.32;100.00;102618.44;6721093;26;20260;-74
2024/04/11 06:35:29;;;;;;;5.63;2.60;;;;;;;12.24;100.00;102618.09;6720983;26;22030;-73
2024/04/11 06:38:51;;;;;;;16.40;2.83;;;;;;;12.28;100.00;102633.16;6734912;26;20263;-73
2024/04/11 06:42:13;;;;;;;6.13;3.03;;;;;;;12.23;100.00;102639.81;6729020;26;20275;-74
2024/04/11 06:45:36;;;;;;;4.10;2.03;;;;;;;12.36;100.00;102644.31;6722453;26;20264;-72
2024/04/11 06:48:59;;;;;;;2.53;2.33;;;;;;;12.25;100.00;102649.56;6732170;26;20267;-72
2024/04/11 06:52:19;;;;;;;6.60;2.93;;;;;;;12.30;100.00;102660.97;6727647;26;20367;-73
2024/04/11 06:55:45;;;;;;;8.90;2.53;;;;;;;12.35;100.00;102658.78;6696614;26;20968;-72
2024/04/11 06:59:10;;;;;;;7.17;2.90;;;;;;;12.17;100.00;102673.56;6702663;26;23451;-71
2024/04/11 07:02:35;;;;;;;5.10;2.40;;;;;;;12.07;100.00;102674.28;6728484;26;20278;-73
2024/04/11 07:06:00;;;;;;;5.63;2.40;;;;;;;11.93;100.00;102677.91;6719673;26;20334;-73
2024/04/11 07:09:25;;;;;;;5.67;2.73;;;;;;;11.70;100.00;102706.38;6732660;26;20319;-72
2024/04/11 07:12:50;;;;;;;5.87;3.03;;;;;;;11.43;100.00;102704.56;6739631;26;21209;-73
2024/04/11 07:16:16;;;;;;;5.00;3.13;;;;;;;11.46;100.00;102707.06;6738595;26;20255;-72
2024/04/11 07:19:39;;;;;;;2.23;2.03;;;;;;;11.39;100.00;102706.56;6752149;26;20992;-72
2024/04/11 07:23:04;;;;;;;2.57;2.03;;;;;;;11.39;100.00;102708.44;6739730;26;20279;-72
2024/04/11 07:26:29;;;;;;;4.10;2.73;;;;;;;11.40;100.00;102710.16;6738440;26;20524;-71
2024/04/11 07:29:52;;;;;;;5.63;3.50;;;;;;;11.46;100.00;102718.72;6719747;26;20601;-73
2024/04/11 07:33:16;;;;;;;3.57;2.40;;;;;;;11.33;100.00;102725.84;6744813;26;20263;-73
2024/04/11 07:36:48;;;;;;;5.27;2.90;;;;;;;11.21;100.00;102722.09;6737299;26;21386;-73
2024/04/11 07:40:27;;;;;;;5.03;2.83;;;;;;;11.09;100.00;102739.06;6715368;26;20276;-70
2024/04/11 07:43:51;;;;;;;3.97;1.90;;;;;;;11.25;100.00;102729.03;6693562;26;20474;-72
2024/04/11 07:47:13;;;;;;;4.70;3.00;;;;;;;11.10;100.00;102732.69;6695772;26;20268;-72
2024/04/11 07:50:33;;;;;;;4.43;3.47;;;;;;;11.00;100.00;102736.03;6714077;26;20264;-72
2024/04/11 07:53:59;;;;;;;4.00;3.03;;;;;;;10.99;100.00;102726.22;6727729;26;20280;-73
2024/04/11 07:57:21;;;;;;;4.33;2.13;;;;;;;10.87;100.00;102741.31;6710575;26;20259;-72
2024/04/11 08:00:47;;;;;;;3.80;3.03;;;;;;;10.89;100.00;102728.59;6728905;26;20251;-72
2024/04/11 08:04:11;;;;;;;5.40;3.03;;;;;;;10.88;100.00;102742.19;6695242;26;22349;-73
2024/04/11 08:07:30;;;;;;;3.97;2.67;;;;;;;10.84;100.00;102755.00;6730728;26;20509;-72
2024/04/11 08:11:02;;;;;;;7.30;3.40;;;;;;;10.81;100.00;102747.06;6723201;26;20271;-73
2024/04/11 08:14:25;;;;;;;7.40;2.80;;;;;;;10.79;100.00;102751.69;6731965;26;21377;-72
2024/04/11 08:17:44;;;;;;;5.47;3.70;;;;;;;10.77;100.00;102764.41;6735086;26;20277;-72
2024/04/11 08:21:08;;;;;;;4.20;2.73;;;;;;;10.83;100.00;102758.63;6731580;26;20256;-73
2024/04/11 08:24:29;;;;;;;4.13;2.93;;;;;;;10.88;100.00;102759.25;6733321;26;20272;-73
2024/04/11 08:27:55;;;;;;;5.17;3.03;;;;;;;10.81;100.00;102768.66;6724596;26;20263;-74
2024/04/11 08:31:15;;;;;;;4.27;3.00;;;;;;;10.99;100.00;102762.16;6728388;26;20263;-73
2024/04/11 08:34:38;;;;;;;6.03;3.10;;;;;;;11.09;100.00;102766.06;6737096;26;20263;-73
2024/04/11 08:37:59;;;;;;;4.97;2.90;;;;;;;11.10;100.00;102765.06;6730292;26;20987;-72
2024/04/11 08:41:21;;;;;;;4.17;2.47;;;;;;;11.18;100.00;102768.16;6731106;26;20268;-73
2024/04/11 08:44:47;;;;;;;7.60;2.50;;;;;;;11.06;100.00;102779.72;6696385;26;20272;-73
2024/04/11 08:48:07;;;;;;;4.50;2.93;;;;;;;11.07;100.00;102781.47;6698129;26;20256;-72
2024/04/11 08:51:34;;;;;;;3.50;3.20;;;;;;;11.10;100.00;102785.78;6696901;26;20279;-72
2024/04/11 08:54:57;;;;;;;4.83;2.70;;;;;;;11.06;100.00;102801.31;6723068;26;20319;-73
2024/04/11 08:58:17;;;;;;;4.97;2.90;;;;;;;11.28;100.00;102787.41;6725946;26;20248;-73
2024/04/11 09:01:43;;;;;;;4.83;3.30;;;;;;;11.30;100.00;102792.69;6731427;26;20597;-72
2024/04/11 09:05:05;;;;;;;4.07;2.77;;;;;;;11.05;100.00;102814.91;6730610;26;20497;-72
2024/04/11 09:08:28;;;;;;;8.10;4.20;;;;;;;11.22;100.00;102798.56;6728951;26;20272;-72
2024/04/11 09:11:53;;;;;;;5.80;3.33;;;;;;;11.38;100.00;102799.38;6735706;26;20263;-72
2024/04/11 09:15:18;;;;;;;5.50;2.43;;;;;;;11.25;100.00;102810.03;6724812;26;20264;-73
2024/04/11 09:18:41;;;;;;;3.40;3.10;;;;;;;11.50;100.00;102803.13;6697988;26;20630;-74
2024/04/11 09:22:06;;;;;;;3.80;3.10;;;;;;;11.63;100.00;102804.09;6734231;26;20288;-73
2024/04/11 09:25:27;;;;;;;5.70;3.77;;;;;;;11.61;100.00;102803.34;6722280;26;20299;-74
2024/04/11 09:28:50;;;;;;;16.83;4.63;;;;;;;11.58;100.00;102817.91;6758701;26;20271;-73
2024/04/11 09:32:15;;;;;;;5.80;4.07;;;;;;;11.66;100.00;102806.63;6696840;26;20269;-72
2024/04/11 09:35:46;;;;;;;4.00;3.37;;;;;;;11.95;100.00;102814.66;6687170;26;20262;-73
2024/04/11 09:39:12;;;;;;;3.90;3.47;;;;;;;11.92;100.00;102817.56;6749549;26;20255;-73
2024/04/11 09:42:34;;;;;;;3.60;3.00;;;;;;;11.85;100.00;102831.53;6738967;26;20610;-73
2024/04/11 09:46:04;;;;;;;3.90;2.57;;;;;;;11.65;100.00;102830.06;6710630;26;20274;-72
2024/04/11 09:49:25;;;;;;;7.07;2.63;;;;;;;11.49;100.00;102831.13;6722394;26;20275;-73
2024/04/11 09:52:50;;;;;;;4.00;3.23;;;;;;;11.57;100.00;102842.31;6742311;26;20256;-73
2024/04/11 09:56:15;;;;;;;4.33;3.43;;;;;;;11.72;100.00;102842.25;6716674;26;20597;-73
2024/04/11 09:59:36;;;;;;;5.03;3.67;;;;;;;11.80;100.00;102858.00;6743518;26;20678;-74
2024/04/11 10:02:59;;;;;;;5.20;3.03;;;;;;;11.80;100.00;102868.81;6731547;26;20255;-73
2024/04/11 10:06:24;;;;;;;9.37;4.30;;;;;;;11.56;100.00;102864.88;6698661;26;20649;-73
2024/04/11 10:09:52;;;;;;;6.17;3.40;;;;;;;11.64;100.00;102862.59;6697103;26;20605;-72
2024/04/11 10:13:15;;;;;;;5.83;4.53;;;;;;;11.67;100.00;102878.63;6728858;26;20256;-73
2024/04/11 10:16:37;;;;;;;4.33;3.03;;;;;;;11.63;100.00;102869.81;6721196;26;20489;-73
2024/04/11 10:20:02;;;;;;;7.97;5.17;;;;;;;11.68;100.00;102858.78;6679434;26;20265;-72
2024/04/11 10:23:24;;;;;;;7.63;4.67;;;;;;;11.79;100.00;102875.16;6734916;26;20268;-73
2024/04/11 10:26:50;;;;;;;4.13;3.73;;;;;;;11.69;100.00;102871.31;6726270;26;20260;-73
2024/04/11 10:30:17;;;;;;;5.00;4.53;;;;;;;11.92;100.00;102874.31;6723562;26;20255;-71
2024/04/11 10:33:47;;;;;;;8.57;4.27;;;;;;;11.95;100.00;102889.50;6684825;26;20271;-72
2024/04/11 10:37:12;;;;;;;4.07;3.07;;;;;;;12.07;100.00;102877.03;6678658;26;20625;-71
2024/04/11 10:40:37;;;;;;;5.17;3.37;;;;;;;12.16;100.00;102874.59;6679334;26;20284;-73
2024/04/11 10:44:02;;;;;;;3.90;3.37;;;;;;;12.34;100.00;102854.50;6689588;26;20272;-72
2024/04/11 10:47:25;;;;;;;5.10;3.60;;;;;;;12.63;100.00;102855.31;6674006;26;20323;-72
2024/04/11 10:50:48;;;;;;;6.53;3.93;;;;;;;13.25;100.00;102860.13;6714267;26;20292;-72
2024/04/11 10:54:11;;;;;;;4.53;4.10;;;;;;;13.08;100.00;102857.69;6628233;26;20261;-74
2024/04/11 10:57:38;;;;;;;6.00;3.60;;;;;;;13.44;100.00;102857.88;6666721;26;20276;-72
2024/04/11 11:01:10;;;;;;;8.33;4.70;;;;;;;13.67;100.00;102848.16;6710342;26;20259;-72
2024/04/11 11:04:32;;;;;;;6.17;3.80;;;;;;;12.81;100.00;102864.91;6731358;26;20275;-73
2024/04/11 11:07:53;;;;;;;4.53;3.77;;;;;;;12.75;100.00;102878.84;6682715;26;20374;-72
2024/04/11 11:11:21;;;;;;;6.03;4.23;;;;;;;12.62;100.00;102877.94;6680502;26;20615;-73
2024/04/11 11:14:45;;;;;;;6.73;4.43;;;;;;;12.91;100.00;102878.72;6704351;26;20264;-72
2024/04/11 11:18:08;;;;;;;7.40;4.80;;;;;;;12.97;100.00;102871.06;6727590;26;20267;-73
2024/04/11 11:21:32;;;;;;;7.27;4.53;;;;;;;13.27;100.00;102866.28;6723000;26;20271;-73
2024/04/11 11:24:58;;;;;;;5.73;4.57;;;;;;;13.16;100.00;102862.59;6726212;26;20259;-73
2024/04/11 11:28:21;;;;;;;6.53;4.00;;;;;;;13.51;100.00;102863.75;6738717;26;20260;-73
2024/04/11 11:31:43;;;;;;;5.70;4.27;;;;;;;13.73;100.00;102849.53;6712744;26;20459;-72
2024/04/11 11:35:09;;;;;;;4.20;3.83;;;;;;;13.65;100.00;102855.50;6683198;26;20469;-73
2024/04/11 11:38:33;;;;;;;6.73;4.00;;;;;;;13.40;100.00;102874.44;6693365;26;20312;-73
2024/04/11 11:42:08;;;;;;;4.67;4.20;;;;;;;13.23;100.00;102872.88;6672389;26;20511;-73
2024/04/11 11:45:28;;;;;;;5.17;3.70;;;;;;;13.38;100.00;102888.09;6676434;26;20258;-72
2024/04/11 11:48:50;;;;;;;7.43;4.43;;;;;;;13.63;100.00;102888.16;6721939;26;20259;-72
2024/04/11 11:52:14;;;;;;;7.00;4.57;;;;;;;13.61;100.00;102889.22;6720725;26;20247;-72
2024/04/11 11:55:40;;;;;;;6.37;5.30;;;;;;;13.52;100.00;102906.09;6728500;26;20263;-72
2024/04/11 11:59:02;;;;;;;6.03;5.37;;;;;;;13.54;100.00;102898.75;6734965;26;20316;-72
2024/04/11 12:02:26;;;;;;;4.40;4.00;;;;;;;13.42;100.00;102900.47;6726785;26;20275;-72
2024/04/11 12:05:50;;;;;;;6.57;5.03;;;;;;;13.35;100.00;102887.47;6680819;26;20335;-72
2024/04/11 12:09:20;;;;;;;6.13;5.03;;;;;;;13.90;100.00;102877.22;6736398;26;20252;-71
2024/04/11 12:12:48;;;;;;;5.03;4.53;;;;;;;13.94;100.00;102872.44;6719772;26;20506;-73
2024/04/11 12:16:15;;;;;;;9.23;5.73;;;;;;;14.12;100.00;102871.97;6713454;26;20471;-72
2024/04/11 12:19:40;;;;;;;7.20;4.63;;;;;;;14.40;100.00;102873.59;6733915;26;20597;-73
2024/04/11 12:23:06;;;;;;;5.17;4.67;;;;;;;14.27;100.00;102883.56;6694470;26;20276;-72
2024/04/11 12:26:32;;;;;;;6.27;5.60;;;;;;;14.09;100.00;102884.91;6720050;26;20291;-72
2024/04/11 12:29:52;;;;;;;7.27;4.53;;;;;;;13.93;100.00;102884.28;6734986;26;20259;-72
2024/04/11 12:33:16;;;;;;;6.47;5.47;;;;;;;13.98;100.00;102895.63;6730911;26;20252;-72
2024/04/11 12:36:56;;;;;;;6.40;4.73;;;;;;;13.86;100.00;102897.38;6728779;26;20351;-72
2024/04/11 12:40:33;;;;;;;5.77;5.17;;;;;;;14.11;100.00;102896.50;6730846;26;20268;-72
2024/04/11 12:43:57;;;;;;;6.67;5.43;;;;;;;14.01;100.00;102903.56;6727321;26;20272;-73
2024/04/11 12:47:23;;;;;;;5.87;4.57;;;;;;;13.91;100.00;102887.09;6703260;26;20272;-72
2024/04/11 12:50:45;;;;;;;7.67;5.83;;;;;;;14.08;100.00;102885.91;6725631;26;20489;-72
2024/04/11 12:54:04;;;;;;;8.63;6.37;;;;;;;14.26;100.00;102892.72;6730371;26;20267;-72
2024/04/11 12:57:28;;;;;;;6.50;5.70;;;;;;;14.63;100.00;102883.66;6730010;26;20546;-72
2024/04/11 13:00:57;;;;;;;5.70;5.20;;;;;;;14.41;100.00;102886.22;6720130;26;20815;-72
2024/04/11 13:04:26;;;;;;;5.70;5.00;;;;;;;14.18;100.00;102887.84;6728912;26;20251;-73
2024/04/11 13:07:48;;;;;;;6.50;4.30;;;;;;;14.05;100.00;102899.66;6733567;26;20259;-71
2024/04/11 13:11:09;;;;;;;6.03;4.67;;;;;;;14.32;100.00;102885.03;6700609;26;20255;-73
2024/04/11 13:14:43;;;;;;;7.67;5.47;;;;;;;14.15;100.00;102889.88;6731531;26;20267;-73
2024/04/11 13:18:11;;;;;;;7.33;5.47;;;;;;;14.09;100.00;102874.06;6724572;26;21185;-73
2024/04/11 13:21:38;;;;;;;6.90;6.20;;;;;;;14.14;100.00;102882.75;6730616;26;20279;-72
2024/04/11 13:25:10;;;;;;;6.27;5.67;;;;;;;14.12;100.00;102882.00;6750205;26;20342;-72
2024/04/11 13:28:30;;;;;;;7.43;6.03;;;;;;;14.02;100.00;102884.47;6748327;26;20279;-72
2024/04/11 13:31:55;;;;;;;7.03;6.43;;;;;;;14.25;100.00;102888.25;6730078;26;20256;-72
2024/04/11 13:35:36;;;;;;;6.33;5.80;;;;;;;14.14;100.00;102891.72;6690542;26;20264;-72
2024/04/11 13:39:00;;;;;;;6.77;5.50;;;;;;;14.29;100.00;102893.38;6749914;26;20255;-72
2024/04/11 13:42:22;;;;;;;6.23;5.63;;;;;;;14.31;100.00;102898.69;6691905;26;20260;-72
2024/04/11 13:45:55;;;;;;;7.17;5.53;;;;;;;14.29;100.00;102909.66;6695649;26;20277;-72
2024/04/11 13:49:30;;;;;;;6.23;5.60;;;;;;;14.19;100.00;102911.25;6678089;26;20260;-72
2024/04/11 13:52:52;;;;;;;7.63;6.43;;;;;;;14.07;100.00;102914.84;6677988;26;20264;-72
2024/04/11 13:56:16;;;;;;;8.80;5.87;;;;;;;14.19;100.00;102905.84;6688113;26;20455;-72
2024/04/11 13:59:40;;;;;;;8.60;5.70;;;;;;;14.18;100.00;102914.09;6684122;26;20266;-73
2024/04/11 14:03:22;;;;;;;6.23;5.67;;;;;;;14.19;100.00;102919.41;6720885;26;20886;-73
2024/04/11 14:10:17;;;;;;;7.50;6.80;;;;;;;14.22;100.00;102911.06;6719548;25;21065;-73
2024/04/11 14:13:41;;;;;;;8.67;6.90;;;;;;;14.24;100.00;102916.38;6755184;26;20275;-74
2024/04/11 14:17:06;;;;;;;7.90;6.53;;;;;;;14.13;100.00;102908.13;6716595;26;20259;-75
2024/04/11 14:20:33;;;;;;;7.80;5.37;;;;;;;14.15;100.00;102909.75;6711373;25;20248;-75
2024/04/11 14:24:04;;;;;;;6.57;5.97;;;;;;;14.19;100.00;102904.97;6674237;26;20265;-74
2024/04/11 14:27:30;;;;;;;11.37;6.50;;;;;;;14.22;100.00;102911.06;6663406;26;20300;-75
2024/04/11 14:30:54;;;;;;;9.37;6.20;;;;;;;14.31;100.00;102918.56;6664540;26;20387;-73
2024/04/11 14:34:23;;;;;;;10.17;7.97;;;;;;;14.20;100.00;102906.72;6700531;26;20971;-74
2024/04/11 14:37:48;;;;;;;6.40;5.60;;;;;;;14.12;100.00;102909.09;6693211;26;20252;-74
2024/04/11 14:41:11;;;;;;;9.57;5.30;;;;;;;14.06;100.00;102904.13;6662922;26;21026;-75
2024/04/11 14:44:44;;;;;;;8.30;5.27;;;;;;;14.07;100.00;102905.84;6665780;26;20770;-75
2024/04/11 14:48:15;;;;;;;6.20;5.60;;;;;;;14.15;100.00;102907.03;6696944;26;20268;-75
2024/04/11 14:51:44;;;;;;;8.17;5.47;;;;;;;14.08;100.00;102904.88;6666529;26;20317;-74
2024/04/11 14:55:09;;;;;;;9.10;7.37;;;;;;;14.01;100.00;102899.03;6708659;26;20283;-75
2024/04/11 14:58:37;;;;;;;7.37;6.67;;;;;;;14.01;100.00;102904.44;6713748;26;20280;-74
2024/04/11 15:02:06;;;;;;;6.33;5.27;;;;;;;14.05;100.00;102914.09;6670045;26;20257;-74
2024/04/11 15:05:34;;;;;;;9.10;6.27;;;;;;;13.90;100.00;102917.00;6689583;26;22602;-75
2024/04/11 15:08:59;;;;;;;12.00;7.47;;;;;;;14.12;100.00;102906.41;6670785;26;20256;-75
2024/04/11 15:12:18;;;;;;;9.03;6.70;;;;;;;14.12;100.00;102909.94;6706446;26;20730;-75
2024/04/11 15:15:56;;;;;;;15.47;7.73;;;;;;;14.15;100.00;102915.19;6672586;26;20275;-75
2024/04/11 15:19:21;;;;;;;7.87;5.67;;;;;;;14.36;100.00;102920.94;6667104;26;20274;-74
2024/04/11 15:22:44;;;;;;;8.23;5.77;;;;;;;14.30;100.00;102918.66;6673070;26;20873;-73
2024/04/11 15:26:12;;;;;;;8.30;7.13;;;;;;;14.08;100.00;102924.72;6659332;26;20266;-74
2024/04/11 15:29:57;;;;;;;9.00;6.03;;;;;;;14.03;100.00;102913.34;6669422;26;20264;-74
2024/04/11 15:33:14;;;;;;;6.83;6.30;;;;;;;14.08;100.00;102915.72;6709134;26;20276;-74
2024/04/11 15:36:52;;;;;;;7.83;6.57;;;;;;;14.20;100.00;102926.56;6673330;26;20285;-74
2024/04/11 15:40:22;;;;;;;8.93;6.20;;;;;;;13.96;100.00;102935.56;6656061;26;20261;-73
2024/04/11 15:43:49;;;;;;;8.60;6.77;;;;;;;14.05;100.00;102916.81;6693286;26;20260;-74